Time;durP1;ratioP1;P1;durP2;ratioP2;P2;SDS_P1;SDS_P2;PMS_P1;PMS_P2;Temp;Humidity;BMP_temperature;BMP_pressure;BME280_temperature;BME280_humidity;BME280_pressure;Samples;Min_cycle;Max_cycle;Signal;HPM_P1;HPM_P2
2021/01/15 00:01:02;;;;;;;29.53;17.27;;;;;;;;;;756634;182;918211;-75
2021/01/15 00:03:27;;;;;;;21.10;11.33;;;;;;;;;;766064;182;919025;-72
2021/01/15 00:05:53;;;;;;;22.50;10.27;;;;;;;;;;757121;183;1280669;-73
2021/01/15 00:08:19;;;;;;;22.30;9.93;;;;;;;;;;761978;180;914794;-73
2021/01/15 00:10:45;;;;;;;27.47;13.20;;;;;;;;;;762910;183;916051;-73
2021/01/15 00:13:11;;;;;;;24.07;12.20;;;;;;;;;;759062;183;915721;-74
2021/01/15 00:15:37;;;;;;;29.47;11.17;;;;;;;;;;756705;183;919969;-72
2021/01/15 00:18:02;;;;;;;21.53;12.80;;;;;;;;;;756149;183;919009;-72
2021/01/15 00:20:28;;;;;;;23.10;12.47;;;;;;;;;;757659;183;1238892;-73
2021/01/15 00:22:54;;;;;;;27.90;13.00;;;;;;;;;;754179;183;919174;-73
2021/01/15 00:25:20;;;;;;;23.38;9.57;;;;;;;;;;754918;183;995821;-74
2021/01/15 00:27:46;;;;;;;25.57;11.50;;;;;;;;;;764617;183;919197;-73
2021/01/15 00:30:12;;;;;;;28.30;12.47;;;;;;;;;;760978;183;924170;-72
2021/01/15 00:32:38;;;;;;;23.80;11.25;;;;;;;;;;757021;183;918675;-73
2021/01/15 00:55:13;;;;;;;24.10;13.00;;;;;;;;;;753225;183;918279;-73
2021/01/15 00:57:39;;;;;;;24.27;13.80;;;;;;;;;;757107;183;1121474;-73
2021/01/15 01:00:05;;;;;;;27.30;14.00;;;;;;;;;;756996;183;918667;-72
2021/01/15 01:02:31;;;;;;;29.40;16.40;;;;;;;;;;756842;183;919048;-73
2021/01/15 01:04:57;;;;;;;29.43;15.33;;;;;;;;;;760636;183;919109;-73
2021/01/15 01:13:08;;;;;;;34.67;17.13;;;;;;;;;;763387;182;918948;-73
2021/01/15 01:15:34;;;;;;;34.15;15.45;;;;;;;;;;765350;182;918253;-73
2021/01/15 01:18:00;;;;;;;29.13;17.47;;;;;;;;;;755022;182;919961;-72
2021/01/15 01:20:26;;;;;;;29.63;17.58;;;;;;;;;;756507;183;919073;-72
2021/01/15 01:22:51;;;;;;;28.77;16.67;;;;;;;;;;760462;183;918854;-72
2021/01/15 01:25:17;;;;;;;33.17;16.60;;;;;;;;;;762010;183;918874;-73
2021/01/15 01:27:44;;;;;;;37.07;17.00;;;;;;;;;;755653;183;918810;-71
2021/01/15 01:30:10;;;;;;;30.10;17.90;;;;;;;;;;761619;183;919343;-73
2021/01/15 01:32:36;;;;;;;33.83;18.10;;;;;;;;;;760289;183;918465;-73
2021/01/15 01:35:02;;;;;;;39.43;20.53;;;;;;;;;;756004;183;1041638;-73
2021/01/15 01:37:28;;;;;;;37.65;19.20;;;;;;;;;;763213;183;919198;-72
2021/01/15 01:39:54;;;;;;;33.27;20.50;;;;;;;;;;760091;181;918358;-73
2021/01/15 01:42:19;;;;;;;39.43;19.93;;;;;;;;;;766045;183;919207;-73
2021/01/15 01:44:45;;;;;;;38.37;18.80;;;;;;;;;;757027;183;919213;-71
2021/01/15 01:47:11;;;;;;;33.03;15.73;;;;;;;;;;762019;183;916466;-74
2021/01/15 01:49:37;;;;;;;35.80;16.77;;;;;;;;;;755547;183;919236;-72
2021/01/15 01:52:03;;;;;;;32.67;17.50;;;;;;;;;;760518;183;919236;-72
2021/01/15 01:54:29;;;;;;;32.90;17.63;;;;;;;;;;761963;182;1087278;-73
2021/01/15 01:56:55;;;;;;;37.27;19.30;;;;;;;;;;761300;182;918918;-72
2021/01/15 01:59:21;;;;;;;40.93;20.00;;;;;;;;;;753067;183;918584;-74
2021/01/15 02:01:46;;;;;;;29.45;15.73;;;;;;;;;;761528;184;918784;-72
2021/01/15 02:04:12;;;;;;;33.33;17.50;;;;;;;;;;757227;183;936142;-75
2021/01/15 02:06:38;;;;;;;28.92;16.17;;;;;;;;;;760332;183;918585;-73
2021/01/15 02:09:04;;;;;;;30.73;17.40;;;;;;;;;;759125;181;918813;-72
2021/01/15 02:11:45;;;;;;;34.20;17.70;;;;;;;;;;761352;183;917276;-72
2021/01/15 02:14:14;;;;;;;34.80;16.80;;;;;;;;;;764198;183;918015;-72
2021/01/15 02:16:38;;;;;;;31.07;17.50;;;;;;;;;;757928;183;919159;-73
2021/01/15 02:19:10;;;;;;;37.30;18.40;;;;;;;;;;757896;183;918928;-73
2021/01/15 02:21:46;;;;;;;37.87;18.10;;;;;;;;;;762091;182;918004;-72
2021/01/15 02:24:14;;;;;;;40.83;20.90;;;;;;;;;;764452;181;918560;-71
2021/01/15 02:26:57;;;;;;;30.60;19.40;;;;;;;;;;754067;182;918878;-73
2021/01/15 02:29:23;;;;;;;37.80;19.90;;;;;;;;;;756992;183;918412;-72
2021/01/15 02:31:50;;;;;;;37.13;19.48;;;;;;;;;;757594;183;918625;-72
2021/01/15 02:34:23;;;;;;;33.25;16.85;;;;;;;;;;762760;183;919558;-71
2021/01/15 02:36:54;;;;;;;31.93;19.00;;;;;;;;;;761363;183;919749;-72
2021/01/15 02:39:26;;;;;;;39.10;18.90;;;;;;;;;;759103;183;920387;-73
2021/01/15 02:41:52;;;;;;;30.93;15.40;;;;;;;;;;759344;183;1023800;-70
2021/01/15 02:44:18;;;;;;;34.93;18.67;;;;;;;;;;757119;183;919867;-72
2021/01/15 02:46:44;;;;;;;34.73;17.67;;;;;;;;;;761872;183;919078;-72
2021/01/15 02:49:09;;;;;;;30.17;15.53;;;;;;;;;;762746;182;918654;-72
2021/01/15 02:51:35;;;;;;;30.73;15.82;;;;;;;;;;760514;182;917665;-73
2021/01/15 02:54:01;;;;;;;37.47;18.80;;;;;;;;;;763781;183;918480;-71
2021/01/15 02:56:27;;;;;;;38.17;16.20;;;;;;;;;;753297;183;912651;-71
2021/01/15 02:58:53;;;;;;;28.03;16.43;;;;;;;;;;758291;183;918197;-72
2021/01/15 03:01:21;;;;;;;34.73;18.00;;;;;;;;;;760836;183;913619;-72
2021/01/15 03:03:51;;;;;;;36.33;19.60;;;;;;;;;;765636;183;916129;-72
2021/01/15 03:06:21;;;;;;;31.07;16.70;;;;;;;;;;756577;183;914995;-72
2021/01/15 03:08:46;;;;;;;36.45;17.58;;;;;;;;;;752465;183;917630;-72
2021/01/15 03:11:12;;;;;;;28.20;14.67;;;;;;;;;;763111;183;827675;-75
2021/01/15 03:13:38;;;;;;;31.33;16.30;;;;;;;;;;755831;183;919137;-72
2021/01/15 03:16:04;;;;;;;34.90;17.77;;;;;;;;;;759614;183;918696;-72
2021/01/15 03:18:31;;;;;;;28.33;16.27;;;;;;;;;;755840;183;918689;-71
2021/01/15 03:20:56;;;;;;;31.80;17.58;;;;;;;;;;762848;183;918866;-72
2021/01/15 03:23:22;;;;;;;27.43;16.97;;;;;;;;;;757030;180;968437;-73
2021/01/15 03:25:48;;;;;;;30.23;16.87;;;;;;;;;;762935;182;918085;-71
2021/01/15 03:28:14;;;;;;;41.30;19.70;;;;;;;;;;764341;182;918461;-72
2021/01/15 03:30:40;;;;;;;32.50;17.00;;;;;;;;;;760343;180;918699;-72
2021/01/15 03:33:06;;;;;;;36.30;18.77;;;;;;;;;;758218;182;918031;-72
2021/01/15 03:35:31;;;;;;;37.67;18.87;;;;;;;;;;766577;182;918664;-72
2021/01/15 03:37:57;;;;;;;42.17;19.50;;;;;;;;;;754373;182;918290;-72
2021/01/15 03:40:23;;;;;;;32.23;17.67;;;;;;;;;;757085;182;918232;-72
2021/01/15 03:42:50;;;;;;;36.37;17.73;;;;;;;;;;761981;183;918057;-72
2021/01/15 03:45:16;;;;;;;45.30;24.90;;;;;;;;;;762248;183;918210;-72
2021/01/15 03:47:42;;;;;;;50.50;27.80;;;;;;;;;;758390;183;918968;-73
2021/01/15 03:50:08;;;;;;;43.87;27.90;;;;;;;;;;754881;183;918037;-71
2021/01/15 03:52:34;;;;;;;34.23;21.27;;;;;;;;;;766254;183;918724;-72
2021/01/15 03:55:00;;;;;;;34.00;19.03;;;;;;;;;;757968;181;919265;-71
2021/01/15 03:57:26;;;;;;;32.27;18.30;;;;;;;;;;758443;183;918927;-72
2021/01/15 03:59:52;;;;;;;32.80;17.20;;;;;;;;;;763137;183;918982;-72
2021/01/15 04:02:17;;;;;;;31.10;17.03;;;;;;;;;;754891;183;1143912;-72
2021/01/15 04:04:48;;;;;;;33.90;18.00;;;;;;;;;;754425;183;918707;-72
2021/01/15 04:07:09;;;;;;;33.03;17.40;;;;;;;;;;762771;183;919384;-71
2021/01/15 04:09:35;;;;;;;37.20;17.97;;;;;;;;;;753052;183;920223;-73
2021/01/15 04:12:01;;;;;;;35.00;16.97;;;;;;;;;;759490;183;918183;-72
2021/01/15 04:14:27;;;;;;;33.10;15.70;;;;;;;;;;755448;183;918770;-72
2021/01/15 04:16:53;;;;;;;30.53;15.50;;;;;;;;;;761553;183;917980;-72
2021/01/15 04:19:19;;;;;;;34.67;16.60;;;;;;;;;;761734;182;919351;-71
2021/01/15 04:21:45;;;;;;;31.60;16.50;;;;;;;;;;758100;183;919519;-72
2021/01/15 04:24:11;;;;;;;42.07;24.80;;;;;;;;;;766090;183;919156;-72
2021/01/15 04:26:37;;;;;;;75.00;37.20;;;;;;;;;;756586;183;919195;-72
2021/01/15 04:29:03;;;;;;;52.17;33.83;;;;;;;;;;756551;183;919333;-72
2021/01/15 04:31:29;;;;;;;42.60;21.13;;;;;;;;;;749690;183;2599049;-72
2021/01/15 04:33:55;;;;;;;80.90;41.45;;;;;;;;;;756881;183;918019;-71
2021/01/15 04:36:20;;;;;;;34.90;15.97;;;;;;;;;;756224;183;919643;-72
2021/01/15 04:38:47;;;;;;;50.67;26.52;;;;;;;;;;759418;183;917113;-71
2021/01/15 04:41:12;;;;;;;45.80;27.27;;;;;;;;;;762540;183;818872;-72
2021/01/15 04:43:39;;;;;;;33.80;17.27;;;;;;;;;;758688;181;916300;-71
2021/01/15 04:46:05;;;;;;;26.90;17.30;;;;;;;;;;758418;182;1021059;-72
2021/01/15 04:48:32;;;;;;;24.40;14.07;;;;;;;;;;765141;182;918721;-72
2021/01/15 04:50:57;;;;;;;24.60;13.90;;;;;;;;;;755199;182;1149709;-72
2021/01/15 04:53:23;;;;;;;27.33;13.95;;;;;;;;;;758517;180;919643;-72
2021/01/15 04:55:49;;;;;;;24.07;13.63;;;;;;;;;;761475;183;920172;-72
2021/01/15 04:58:15;;;;;;;21.70;12.13;;;;;;;;;;746240;183;2032208;-72
2021/01/15 05:00:41;;;;;;;28.10;14.03;;;;;;;;;;758028;183;916217;-72
2021/01/15 05:03:07;;;;;;;32.47;15.87;;;;;;;;;;760105;183;919349;-72
2021/01/15 05:05:33;;;;;;;27.53;15.00;;;;;;;;;;757323;183;1016868;-72
2021/01/15 05:08:12;;;;;;;21.50;12.43;;;;;;;;;;758026;183;918804;-71
2021/01/15 05:10:38;;;;;;;28.25;13.73;;;;;;;;;;760032;183;918338;-72
2021/01/15 05:13:03;;;;;;;23.13;12.67;;;;;;;;;;760176;183;918740;-70
2021/01/15 05:15:29;;;;;;;24.80;13.23;;;;;;;;;;754735;183;919093;-72
2021/01/15 05:17:55;;;;;;;26.75;16.05;;;;;;;;;;764256;182;919170;-72
2021/01/15 05:20:21;;;;;;;23.80;13.40;;;;;;;;;;763777;183;919032;-72
2021/01/15 05:22:47;;;;;;;25.50;14.50;;;;;;;;;;762410;183;923420;-71
2021/01/15 05:25:13;;;;;;;24.13;14.40;;;;;;;;;;758678;183;918912;-72
2021/01/15 05:27:38;;;;;;;27.33;14.20;;;;;;;;;;755357;183;918802;-72
2021/01/15 05:30:10;;;;;;;19.40;12.77;;;;;;;;;;761188;183;919127;-72
2021/01/15 05:32:36;;;;;;;26.10;14.60;;;;;;;;;;755462;183;920628;-72
2021/01/15 05:35:02;;;;;;;26.80;15.17;;;;;;;;;;756581;184;918834;-72
2021/01/15 05:37:28;;;;;;;28.53;15.70;;;;;;;;;;753925;183;1080227;-72
2021/01/15 05:39:53;;;;;;;27.63;13.97;;;;;;;;;;761599;183;918522;-72
2021/01/15 05:42:19;;;;;;;22.30;12.57;;;;;;;;;;758347;183;919385;-72
2021/01/15 05:44:45;;;;;;;23.90;14.70;;;;;;;;;;757936;182;917660;-72
2021/01/15 05:47:11;;;;;;;21.53;13.70;;;;;;;;;;765130;182;918275;-71
2021/01/15 05:49:37;;;;;;;19.67;12.63;;;;;;;;;;756817;183;918858;-72
2021/01/15 05:52:06;;;;;;;25.57;13.10;;;;;;;;;;759057;183;919378;-71
2021/01/15 05:54:31;;;;;;;24.50;14.20;;;;;;;;;;763939;180;1017477;-72
2021/01/15 05:56:58;;;;;;;23.10;12.35;;;;;;;;;;759691;182;926353;-71
2021/01/15 05:59:24;;;;;;;22.53;12.90;;;;;;;;;;753965;182;1363893;-71
2021/01/15 06:01:51;;;;;;;24.93;13.80;;;;;;;;;;759659;182;918744;-72
2021/01/15 06:04:16;;;;;;;20.25;11.65;;;;;;;;;;760102;183;856941;-71
2021/01/15 06:06:42;;;;;;;26.33;13.20;;;;;;;;;;763158;183;633185;-71
2021/01/15 06:09:08;;;;;;;20.00;13.05;;;;;;;;;;755771;183;916795;-72
2021/01/15 06:11:34;;;;;;;25.13;12.37;;;;;;;;;;763114;183;920482;-71
2021/01/15 06:14:00;;;;;;;21.50;12.57;;;;;;;;;;758059;183;917934;-72
2021/01/15 06:16:25;;;;;;;24.93;12.50;;;;;;;;;;759382;183;919066;-71
2021/01/15 06:18:59;;;;;;;22.77;13.97;;;;;;;;;;762942;183;917073;-72
2021/01/15 06:21:25;;;;;;;21.97;12.00;;;;;;;;;;760507;183;919618;-72
2021/01/15 06:23:51;;;;;;;23.27;12.33;;;;;;;;;;763400;183;922901;-71
2021/01/15 06:26:17;;;;;;;22.80;11.60;;;;;;;;;;761220;183;919407;-72
2021/01/15 06:28:43;;;;;;;26.50;13.37;;;;;;;;;;763716;183;909284;-72
2021/01/15 06:31:09;;;;;;;22.23;12.30;;;;;;;;;;758449;183;916136;-72
2021/01/15 06:33:34;;;;;;;38.95;19.48;;;;;;;;;;757694;183;915923;-72
2021/01/15 06:36:04;;;;;;;36.23;18.50;;;;;;;;;;761566;183;818047;-75
2021/01/15 06:38:26;;;;;;;24.70;13.90;;;;;;;;;;755390;181;1024007;-71
2021/01/15 06:40:52;;;;;;;38.97;19.87;;;;;;;;;;751297;183;2131592;-73
2021/01/15 06:43:22;;;;;;;44.50;24.47;;;;;;;;;;757973;183;919221;-71
2021/01/15 06:45:50;;;;;;;56.77;27.30;;;;;;;;;;759322;183;919601;-72
2021/01/15 06:48:18;;;;;;;43.30;23.57;;;;;;;;;;763010;183;918069;-72
2021/01/15 06:50:44;;;;;;;56.70;30.20;;;;;;;;;;756105;183;918220;-72
2021/01/15 06:53:15;;;;;;;44.37;20.90;;;;;;;;;;762623;183;919636;-72
2021/01/15 06:55:41;;;;;;;61.40;32.03;;;;;;;;;;753311;186;919546;-71
2021/01/15 06:58:07;;;;;;;37.13;20.10;;;;;;;;;;755853;183;1021103;-73
2021/01/15 07:00:33;;;;;;;51.27;27.03;;;;;;;;;;758855;183;632228;-72
2021/01/15 07:03:02;;;;;;;34.50;21.97;;;;;;;;;;761252;183;915709;-72
2021/01/15 07:05:28;;;;;;;46.40;22.53;;;;;;;;;;762989;180;628104;-71
2021/01/15 07:07:53;;;;;;;37.93;25.10;;;;;;;;;;758504;183;639394;-72
2021/01/15 07:10:19;;;;;;;38.67;21.63;;;;;;;;;;760116;182;919296;-71
2021/01/15 07:12:45;;;;;;;42.80;23.17;;;;;;;;;;761677;182;921856;-72
2021/01/15 07:15:12;;;;;;;51.07;24.80;;;;;;;;;;765856;183;629424;-70
2021/01/15 07:17:38;;;;;;;55.80;25.23;;;;;;;;;;760116;183;640182;-72
2021/01/15 07:20:05;;;;;;;54.30;24.40;;;;;;;;;;766321;183;625451;-72
2021/01/15 07:22:43;;;;;;;48.40;22.57;;;;;;;;;;764907;182;628807;-72
2021/01/15 07:25:10;;;;;;;50.70;21.20;;;;;;;;;;763818;183;713021;-72
2021/01/15 07:27:36;;;;;;;83.27;35.47;;;;;;;;;;740624;183;4531935;-72
2021/01/15 07:30:02;;;;;;;108.33;41.37;;;;;;;;;;766580;182;931002;-72
2021/01/15 07:32:28;;;;;;;106.80;41.60;;;;;;;;;;761415;182;919905;-72
2021/01/15 07:34:54;;;;;;;45.30;23.23;;;;;;;;;;758533;182;992745;-72
2021/01/15 07:37:20;;;;;;;51.13;23.80;;;;;;;;;;758094;184;1021209;-72
2021/01/15 07:39:52;;;;;;;45.60;23.53;;;;;;;;;;759543;183;933979;-72
2021/01/15 07:42:18;;;;;;;49.10;25.58;;;;;;;;;;756385;183;918538;-72
2021/01/15 07:44:44;;;;;;;87.53;35.47;;;;;;;;;;756479;183;918893;-72
2021/01/15 07:47:11;;;;;;;84.47;32.77;;;;;;;;;;762473;183;918713;-72
2021/01/15 07:49:41;;;;;;;46.43;23.20;;;;;;;;;;752968;183;1722558;-72
2021/01/15 07:52:08;;;;;;;44.13;22.87;;;;;;;;;;758000;183;918818;-72
2021/01/15 07:54:39;;;;;;;63.77;28.13;;;;;;;;;;756631;183;918414;-71
2021/01/15 07:57:10;;;;;;;78.20;38.47;;;;;;;;;;765362;182;918369;-72
2021/01/15 07:59:36;;;;;;;45.13;25.67;;;;;;;;;;754317;183;917305;-73
2021/01/15 08:02:02;;;;;;;58.87;32.77;;;;;;;;;;759956;182;918754;-72
2021/01/15 08:04:27;;;;;;;69.43;34.30;;;;;;;;;;757955;182;918206;-71
2021/01/15 08:06:53;;;;;;;76.82;36.20;;;;;;;;;;760026;183;934494;-72
2021/01/15 08:09:19;;;;;;;69.80;34.20;;;;;;;;;;752279;183;1346338;-72
2021/01/15 08:11:45;;;;;;;54.53;29.90;;;;;;;;;;756647;183;918787;-72
2021/01/15 08:14:13;;;;;;;82.40;38.90;;;;;;;;;;759309;183;960152;-72
2021/01/15 08:16:39;;;;;;;68.25;30.83;;;;;;;;;;761312;182;919461;-72
2021/01/15 08:19:06;;;;;;;47.53;27.10;;;;;;;;;;758242;182;918671;-72
2021/01/15 08:21:32;;;;;;;31.90;18.53;;;;;;;;;;763203;182;918979;-72
2021/01/15 08:24:03;;;;;;;32.13;17.20;;;;;;;;;;760819;182;919828;-72
2021/01/15 08:26:31;;;;;;;53.30;27.77;;;;;;;;;;762075;182;918569;-72
2021/01/15 08:28:57;;;;;;;72.20;39.73;;;;;;;;;;762456;182;926292;-73
2021/01/15 08:31:22;;;;;;;61.93;35.30;;;;;;;;;;764402;182;922761;-71
2021/01/15 08:33:48;;;;;;;62.60;34.63;;;;;;;;;;758972;183;919145;-72
2021/01/15 08:36:14;;;;;;;78.30;38.60;;;;;;;;;;754687;183;918471;-72
2021/01/15 08:38:40;;;;;;;49.70;28.13;;;;;;;;;;763564;181;918786;-72
2021/01/15 08:41:13;;;;;;;49.87;28.00;;;;;;;;;;757115;183;918343;-72
2021/01/15 08:43:39;;;;;;;28.00;16.60;;;;;;;;;;760222;180;918915;-72
2021/01/15 08:46:04;;;;;;;36.85;18.30;;;;;;;;;;754813;183;918705;-73
2021/01/15 08:48:30;;;;;;;30.53;17.07;;;;;;;;;;763103;183;914858;-70
2021/01/15 08:50:56;;;;;;;36.90;17.70;;;;;;;;;;752942;183;918675;-72
2021/01/15 08:53:22;;;;;;;46.80;24.40;;;;;;;;;;757915;183;919163;-72
2021/01/15 08:55:48;;;;;;;35.43;20.17;;;;;;;;;;759684;183;1018790;-71
2021/01/15 08:58:14;;;;;;;30.13;16.67;;;;;;;;;;758203;183;918319;-72
2021/01/15 09:00:39;;;;;;;21.93;10.87;;;;;;;;;;755327;183;918745;-71
2021/01/15 09:03:05;;;;;;;22.90;10.67;;;;;;;;;;754638;183;919270;-70
2021/01/15 09:05:31;;;;;;;18.93;10.33;;;;;;;;;;754587;182;934650;-72
2021/01/15 09:07:57;;;;;;;25.10;14.80;;;;;;;;;;765089;183;918694;-71
2021/01/15 09:10:23;;;;;;;35.63;12.93;;;;;;;;;;759254;183;919756;-71
2021/01/15 09:12:49;;;;;;;28.87;17.27;;;;;;;;;;760069;183;919174;-71
2021/01/15 09:15:18;;;;;;;25.93;14.30;;;;;;;;;;756739;183;1021040;-71
2021/01/15 09:17:44;;;;;;;21.00;11.90;;;;;;;;;;757759;183;917307;-73
2021/01/15 09:20:11;;;;;;;23.60;13.27;;;;;;;;;;761473;183;920832;-71
2021/01/15 09:22:36;;;;;;;33.17;16.75;;;;;;;;;;757664;183;917474;-72
2021/01/15 09:25:02;;;;;;;19.80;11.00;;;;;;;;;;760134;183;922036;-70
2021/01/15 09:27:30;;;;;;;21.90;12.73;;;;;;;;;;756353;183;1008817;-71
2021/01/15 09:29:55;;;;;;;44.17;19.30;;;;;;;;;;762204;180;915102;-70
2021/01/15 09:32:20;;;;;;;35.70;16.23;;;;;;;;;;763042;182;1021478;-71
2021/01/15 09:34:47;;;;;;;40.65;18.17;;;;;;;;;;760254;182;915806;-71
2021/01/15 09:37:13;;;;;;;64.47;19.43;;;;;;;;;;763581;182;914686;-71
2021/01/15 09:39:38;;;;;;;74.33;29.00;;;;;;;;;;758227;183;915500;-71
2021/01/15 09:42:05;;;;;;;56.78;23.73;;;;;;;;;;755838;183;1058978;-71
2021/01/15 09:44:31;;;;;;;59.67;26.40;;;;;;;;;;763757;183;915381;-71
2021/01/15 09:46:57;;;;;;;65.17;23.90;;;;;;;;;;760187;183;918840;-71
2021/01/15 09:49:23;;;;;;;48.23;19.70;;;;;;;;;;757550;183;918857;-70
2021/01/15 09:51:50;;;;;;;92.00;34.40;;;;;;;;;;757371;183;918564;-70
2021/01/15 09:54:15;;;;;;;54.93;23.37;;;;;;;;;;756754;183;918373;-70
2021/01/15 09:56:41;;;;;;;37.23;18.03;;;;;;;;;;757992;183;919183;-72
2021/01/15 09:59:07;;;;;;;104.17;40.83;;;;;;;;;;754756;183;918165;-71
2021/01/15 10:01:32;;;;;;;54.50;23.77;;;;;;;;;;763195;183;918799;-70
2021/01/15 10:03:59;;;;;;;45.07;17.67;;;;;;;;;;758851;183;696515;-71
2021/01/15 10:06:27;;;;;;;51.57;23.60;;;;;;;;;;760752;183;920232;-71
2021/01/15 10:08:50;;;;;;;69.57;26.63;;;;;;;;;;762007;183;913540;-71
2021/01/15 10:11:18;;;;;;;65.17;28.37;;;;;;;;;;759485;183;931816;-71
2021/01/15 10:13:44;;;;;;;37.53;14.98;;;;;;;;;;756291;183;921587;-71
2021/01/15 10:16:10;;;;;;;37.88;16.02;;;;;;;;;;762543;183;919088;-70
2021/01/15 10:18:36;;;;;;;60.63;25.77;;;;;;;;;;757780;183;920002;-71
2021/01/15 10:21:03;;;;;;;63.80;23.27;;;;;;;;;;765002;183;919022;-72
2021/01/15 10:23:28;;;;;;;51.97;20.57;;;;;;;;;;753331;183;1897447;-70
2021/01/15 10:25:54;;;;;;;23.77;13.73;;;;;;;;;;763625;183;917340;-70
2021/01/15 10:28:21;;;;;;;28.57;15.03;;;;;;;;;;756522;183;919117;-69
2021/01/15 10:30:45;;;;;;;29.25;15.35;;;;;;;;;;757781;183;919860;-70
2021/01/15 10:33:11;;;;;;;51.50;24.80;;;;;;;;;;762920;183;915340;-72
2021/01/15 10:35:37;;;;;;;41.33;18.70;;;;;;;;;;757227;183;924467;-71
2021/01/15 10:38:03;;;;;;;22.33;14.00;;;;;;;;;;760969;181;873245;-72
2021/01/15 10:40:29;;;;;;;24.23;13.23;;;;;;;;;;758249;183;914991;-71
2021/01/15 10:42:55;;;;;;;27.87;14.53;;;;;;;;;;757594;182;959712;-72
2021/01/15 10:45:20;;;;;;;23.80;11.88;;;;;;;;;;757775;182;1243441;-73
2021/01/15 10:47:46;;;;;;;26.90;10.57;;;;;;;;;;766357;182;919227;-73
2021/01/15 10:50:14;;;;;;;18.07;10.80;;;;;;;;;;759907;183;919023;-71
2021/01/15 10:52:38;;;;;;;21.73;11.60;;;;;;;;;;756724;183;919236;-72
2021/01/15 10:55:04;;;;;;;22.43;12.57;;;;;;;;;;759718;183;919228;-72
2021/01/15 10:57:30;;;;;;;32.13;15.67;;;;;;;;;;763793;183;918852;-72
2021/01/15 10:59:56;;;;;;;22.63;12.43;;;;;;;;;;755463;183;1031135;-72
2021/01/15 11:02:22;;;;;;;18.10;12.20;;;;;;;;;;759261;183;913679;-72
2021/01/15 11:04:48;;;;;;;32.30;17.83;;;;;;;;;;761321;183;919194;-73
2021/01/15 11:07:14;;;;;;;21.40;13.67;;;;;;;;;;754435;183;918606;-72
2021/01/15 11:09:39;;;;;;;32.65;16.33;;;;;;;;;;757588;183;921936;-72
2021/01/15 11:12:06;;;;;;;27.27;17.05;;;;;;;;;;762697;183;1015852;-71
2021/01/15 11:14:32;;;;;;;23.53;11.67;;;;;;;;;;770983;182;918337;-73
2021/01/15 11:16:59;;;;;;;19.70;11.73;;;;;;;;;;756525;183;919174;-73
2021/01/15 11:19:25;;;;;;;21.90;10.80;;;;;;;;;;756220;183;917803;-73
2021/01/15 11:21:51;;;;;;;20.80;10.80;;;;;;;;;;762020;183;916603;-73
2021/01/15 11:24:17;;;;;;;21.03;11.83;;;;;;;;;;756547;183;918727;-72
2021/01/15 11:26:43;;;;;;;15.97;8.37;;;;;;;;;;754275;183;1020146;-71
2021/01/15 11:29:09;;;;;;;20.23;9.23;;;;;;;;;;761592;184;920187;-73
2021/01/15 11:31:35;;;;;;;19.90;10.03;;;;;;;;;;758449;183;918662;-72
2021/01/15 11:34:00;;;;;;;25.40;12.10;;;;;;;;;;759601;181;918479;-72
2021/01/15 11:36:30;;;;;;;14.63;6.90;;;;;;;;;;756956;184;918861;-71
2021/01/15 11:38:52;;;;;;;18.63;9.67;;;;;;;;;;757232;183;919711;-72
2021/01/15 11:41:23;;;;;;;22.00;10.10;;;;;;;;;;758463;183;918437;-72
2021/01/15 11:43:49;;;;;;;16.73;8.88;;;;;;;;;;755700;180;1019813;-72
2021/01/15 11:46:15;;;;;;;19.73;9.67;;;;;;;;;;761730;183;918639;-71
2021/01/15 11:48:41;;;;;;;19.00;9.47;;;;;;;;;;755550;183;918896;-72
2021/01/15 11:51:10;;;;;;;19.83;9.80;;;;;;;;;;758945;180;918052;-70
2021/01/15 11:53:35;;;;;;;15.37;8.40;;;;;;;;;;765779;182;968332;-71
2021/01/15 11:56:01;;;;;;;12.63;8.17;;;;;;;;;;739271;184;918952;-71
2021/01/15 11:58:27;;;;;;;10.80;7.10;;;;;;;;;;737302;185;941740;-70
2021/01/15 12:00:55;;;;;;;16.43;8.13;;;;;;;;;;760375;183;919079;-71
2021/01/15 12:03:19;;;;;;;16.57;7.67;;;;;;;;;;760287;183;917753;-71
2021/01/15 12:05:49;;;;;;;10.60;5.43;;;;;;;;;;758276;182;921775;-71
2021/01/15 12:08:10;;;;;;;14.97;7.90;;;;;;;;;;759650;183;638616;-71
2021/01/15 12:10:36;;;;;;;14.73;7.93;;;;;;;;;;764569;183;918480;-70
2021/01/15 12:13:02;;;;;;;11.10;6.57;;;;;;;;;;758964;183;741577;-71
2021/01/15 12:15:28;;;;;;;15.53;7.40;;;;;;;;;;758653;183;918872;-71
2021/01/15 12:17:54;;;;;;;16.20;7.83;;;;;;;;;;761113;183;919401;-72
2021/01/15 12:20:20;;;;;;;14.07;5.90;;;;;;;;;;747530;186;919104;-71
2021/01/15 12:22:45;;;;;;;12.03;5.80;;;;;;;;;;748912;186;919562;-71
2021/01/15 12:25:12;;;;;;;14.43;6.67;;;;;;;;;;744778;186;1019841;-71
2021/01/15 12:27:37;;;;;;;20.10;7.70;;;;;;;;;;748318;184;921729;-72
2021/01/15 12:30:04;;;;;;;16.40;8.77;;;;;;;;;;746183;186;625354;-71
2021/01/15 12:32:30;;;;;;;18.77;8.80;;;;;;;;;;749962;186;636149;-71
2021/01/15 12:34:56;;;;;;;13.57;7.30;;;;;;;;;;753033;186;618430;-71
2021/01/15 12:37:23;;;;;;;15.30;8.00;;;;;;;;;;748399;184;645617;-72
2021/01/15 12:39:49;;;;;;;22.73;8.33;;;;;;;;;;745949;186;636549;-71
2021/01/15 12:42:15;;;;;;;10.90;6.40;;;;;;;;;;753289;186;616721;-71
2021/01/15 12:44:41;;;;;;;13.60;7.97;;;;;;;;;;747915;186;622828;-71
2021/01/15 12:47:07;;;;;;;13.37;7.50;;;;;;;;;;735942;191;629339;-71
2021/01/15 12:49:33;;;;;;;26.20;12.37;;;;;;;;;;748861;186;638514;-71
2021/01/15 12:51:59;;;;;;;24.90;13.53;;;;;;;;;;749096;187;627975;-71
2021/01/15 12:54:24;;;;;;;32.33;20.00;;;;;;;;;;748804;186;622060;-71
2021/01/15 12:56:50;;;;;;;32.13;16.37;;;;;;;;;;750307;186;630948;-71
2021/01/15 12:59:16;;;;;;;94.90;44.93;;;;;;;;;;751918;186;643639;-71
2021/01/15 13:01:42;;;;;;;28.20;14.05;;;;;;;;;;744605;183;680511;-72
2021/01/15 13:04:08;;;;;;;17.27;8.97;;;;;;;;;;750089;186;689960;-71
2021/01/15 13:06:35;;;;;;;38.30;20.80;;;;;;;;;;754733;186;623687;-72
2021/01/15 13:09:01;;;;;;;101.00;46.10;;;;;;;;;;750647;186;638680;-72
2021/01/15 13:11:27;;;;;;;37.87;20.50;;;;;;;;;;748662;186;655837;-71
2021/01/15 13:13:53;;;;;;;29.93;12.57;;;;;;;;;;750361;186;639102;-70
2021/01/15 13:16:19;;;;;;;30.00;17.00;;;;;;;;;;749626;186;628690;-72
2021/01/15 13:18:45;;;;;;;23.13;10.10;;;;;;;;;;749348;185;618930;-70
2021/01/15 13:21:12;;;;;;;14.70;8.07;;;;;;;;;;746328;186;646195;-71
2021/01/15 13:23:36;;;;;;;20.50;8.87;;;;;;;;;;753409;186;727889;-71
2021/01/15 13:26:02;;;;;;;14.03;8.00;;;;;;;;;;745189;186;693391;-71
2021/01/15 13:28:28;;;;;;;35.70;15.60;;;;;;;;;;749306;186;627934;-71
2021/01/15 13:30:54;;;;;;;31.17;18.13;;;;;;;;;;751620;186;620788;-71
2021/01/15 13:33:20;;;;;;;28.00;15.83;;;;;;;;;;752364;186;641923;-73
2021/01/15 13:35:48;;;;;;;32.80;14.47;;;;;;;;;;751952;186;619709;-72
2021/01/15 13:38:14;;;;;;;19.17;7.97;;;;;;;;;;750568;186;628554;-71
2021/01/15 13:40:40;;;;;;;12.90;8.23;;;;;;;;;;748673;187;624246;-71
2021/01/15 13:43:05;;;;;;;20.57;8.20;;;;;;;;;;753528;187;618896;-71
2021/01/15 13:45:31;;;;;;;20.77;13.10;;;;;;;;;;747825;187;667410;-72
2021/01/15 13:47:57;;;;;;;23.03;12.60;;;;;;;;;;748449;187;642834;-71
2021/01/15 13:50:25;;;;;;;29.47;15.90;;;;;;;;;;747973;183;637967;-71
2021/01/15 13:52:52;;;;;;;16.93;9.10;;;;;;;;;;747009;186;620631;-72
2021/01/15 13:55:18;;;;;;;18.50;13.13;;;;;;;;;;754909;186;632413;-72
2021/01/15 13:57:43;;;;;;;43.77;22.70;;;;;;;;;;749478;186;628882;-72
2021/01/15 14:00:10;;;;;;;18.30;9.27;;;;;;;;;;752711;186;629919;-72
2021/01/15 14:02:40;;;;;;;21.37;12.23;;;;;;;;;;747734;186;625218;-72
2021/01/15 14:05:07;;;;;;;23.17;9.40;;;;;;;;;;746981;187;642793;-72
2021/01/15 14:07:33;;;;;;;20.62;11.23;;;;;;;;;;746520;186;873781;-72
2021/01/15 14:09:58;;;;;;;25.90;15.40;;;;;;;;;;744702;186;918645;-72
2021/01/15 14:12:24;;;;;;;22.57;12.87;;;;;;;;;;746060;186;919899;-72
2021/01/15 14:14:50;;;;;;;42.77;23.57;;;;;;;;;;744155;185;919728;-72
2021/01/15 14:17:16;;;;;;;69.55;34.45;;;;;;;;;;742662;185;913332;-73
2021/01/15 14:19:42;;;;;;;28.70;18.40;;;;;;;;;;747909;183;912766;-73
2021/01/15 14:22:08;;;;;;;20.63;11.60;;;;;;;;;;746928;186;911960;-73
2021/01/15 14:24:34;;;;;;;16.70;9.73;;;;;;;;;;743645;186;916430;-74